sensor_id;sensor_type;location;lat;lon;timestamp;temperature;humidity
5276;DHT22;2661;50.786;12.728;2023-02-28T00:01:10;-1.20;42.60
5276;DHT22;2661;50.786;12.728;2023-02-28T00:03:37;-1.20;40.60
5276;DHT22;2661;50.786;12.728;2023-02-28T00:06:04;-1.20;35.50
5276;DHT22;2661;50.786;12.728;2023-02-28T00:08:31;-1.00;35.60
5276;DHT22;2661;50.786;12.728;2023-02-28T00:11:04;-1.00;37.80
5276;DHT22;2661;50.786;12.728;2023-02-28T00:13:31;-0.90;36.70
5276;DHT22;2661;50.786;12.728;2023-02-28T00:16:04;-0.90;38.60
5276;DHT22;2661;50.786;12.728;2023-02-28T00:18:30;-1.00;31.60
5276;DHT22;2661;50.786;12.728;2023-02-28T00:20:58;-0.90;33.70
5276;DHT22;2661;50.786;12.728;2023-02-28T00:23:25;-1.00;37.20
5276;DHT22;2661;50.786;12.728;2023-02-28T00:25:51;-0.90;37.10
5276;DHT22;2661;50.786;12.728;2023-02-28T00:28:18;-0.90;37.00
5276;DHT22;2661;50.786;12.728;2023-02-28T00:30:45;-0.90;38.50
5276;DHT22;2661;50.786;12.728;2023-02-28T00:33:11;-1.00;50.00
5276;DHT22;2661;50.786;12.728;2023-02-28T00:35:38;-1.00;29.80
5276;DHT22;2661;50.786;12.728;2023-02-28T00:38:05;-1.00;29.80
5276;DHT22;2661;50.786;12.728;2023-02-28T00:40:32;-1.00;34.10
5276;DHT22;2661;50.786;12.728;2023-02-28T00:42:58;-1.00;33.10
5276;DHT22;2661;50.786;12.728;2023-02-28T00:45:25;-1.00;31.30
5276;DHT22;2661;50.786;12.728;2023-02-28T00:47:51;-1.10;35.90
5276;DHT22;2661;50.786;12.728;2023-02-28T00:50:19;-1.10;37.30
5276;DHT22;2661;50.786;12.728;2023-02-28T00:52:46;-1.00;30.30
5276;DHT22;2661;50.786;12.728;2023-02-28T00:55:13;-1.00;31.10
5276;DHT22;2661;50.786;12.728;2023-02-28T00:57:39;-1.00;26.70
5276;DHT22;2661;50.786;12.728;2023-02-28T01:00:07;-1.00;43.60
5276;DHT22;2661;50.786;12.728;2023-02-28T01:02:34;-1.10;36.60
5276;DHT22;2661;50.786;12.728;2023-02-28T01:05:00;-1.10;64.00
5276;DHT22;2661;50.786;12.728;2023-02-28T01:07:27;-1.10;41.90
5276;DHT22;2661;50.786;12.728;2023-02-28T01:09:54;-1.10;45.40
5276;DHT22;2661;50.786;12.728;2023-02-28T01:12:20;-1.10;47.00
5276;DHT22;2661;50.786;12.728;2023-02-28T01:14:47;-1.10;43.90
5276;DHT22;2661;50.786;12.728;2023-02-28T01:17:13;-1.10;54.00
5276;DHT22;2661;50.786;12.728;2023-02-28T01:19:40;-1.10;40.50
5276;DHT22;2661;50.786;12.728;2023-02-28T01:22:07;-1.10;40.30
5276;DHT22;2661;50.786;12.728;2023-02-28T01:24:33;-1.20;31.90
5276;DHT22;2661;50.786;12.728;2023-02-28T01:27:00;-1.20;48.40
5276;DHT22;2661;50.786;12.728;2023-02-28T01:29:26;-1.30;33.80
5276;DHT22;2661;50.786;12.728;2023-02-28T01:31:53;-1.30;51.70
5276;DHT22;2661;50.786;12.728;2023-02-28T01:34:19;-1.20;31.80
5276;DHT22;2661;50.786;12.728;2023-02-28T01:36:46;-1.20;34.80
5276;DHT22;2661;50.786;12.728;2023-02-28T01:39:13;-1.20;43.30
5276;DHT22;2661;50.786;12.728;2023-02-28T01:41:39;-1.20;43.90
5276;DHT22;2661;50.786;12.728;2023-02-28T01:44:53;-1.10;45.30
5276;DHT22;2661;50.786;12.728;2023-02-28T01:46:53;-1.20;40.90
5276;DHT22;2661;50.786;12.728;2023-02-28T01:49:19;-1.30;38.20
5276;DHT22;2661;50.786;12.728;2023-02-28T01:51:48;-1.40;38.00
5276;DHT22;2661;50.786;12.728;2023-02-28T01:54:19;-1.40;30.60
5276;DHT22;2661;50.786;12.728;2023-02-28T01:56:47;-1.50;39.00
5276;DHT22;2661;50.786;12.728;2023-02-28T01:59:20;-1.60;33.50
5276;DHT22;2661;50.786;12.728;2023-02-28T02:01:48;-1.70;32.70
5276;DHT22;2661;50.786;12.728;2023-02-28T02:04:15;-1.70;38.40
5276;DHT22;2661;50.786;12.728;2023-02-28T02:06:43;-1.80;30.70
5276;DHT22;2661;50.786;12.728;2023-02-28T02:09:10;-1.90;32.90
5276;DHT22;2661;50.786;12.728;2023-02-28T02:11:37;-2.00;32.60
5276;DHT22;2661;50.786;12.728;2023-02-28T02:14:15;-2.00;40.00
5276;DHT22;2661;50.786;12.728;2023-02-28T02:27:39;-2.20;37.80
5276;DHT22;2661;50.786;12.728;2023-02-28T02:35:27;-2.30;47.30
5276;DHT22;2661;50.786;12.728;2023-02-28T02:43:50;-2.20;42.50
5276;DHT22;2661;50.786;12.728;2023-02-28T02:46:20;-2.30;49.80
5276;DHT22;2661;50.786;12.728;2023-02-28T02:48:47;-2.20;50.20
5276;DHT22;2661;50.786;12.728;2023-02-28T02:51:15;-2.20;39.80
5276;DHT22;2661;50.786;12.728;2023-02-28T02:53:46;-2.30;48.20
5276;DHT22;2661;50.786;12.728;2023-02-28T02:56:17;-2.20;48.80
5276;DHT22;2661;50.786;12.728;2023-02-28T02:58:44;-2.20;48.90
5276;DHT22;2661;50.786;12.728;2023-02-28T03:01:12;-2.10;39.10
5276;DHT22;2661;50.786;12.728;2023-02-28T03:03:40;-2.00;47.80
5276;DHT22;2661;50.786;12.728;2023-02-28T03:06:07;-2.10;31.40
5276;DHT22;2661;50.786;12.728;2023-02-28T03:08:35;-2.00;34.40
5276;DHT22;2661;50.786;12.728;2023-02-28T03:11:04;-1.80;25.90
5276;DHT22;2661;50.786;12.728;2023-02-28T03:13:42;-1.90;41.10
5276;DHT22;2661;50.786;12.728;2023-02-28T03:16:14;-1.80;36.20
5276;DHT22;2661;50.786;12.728;2023-02-28T03:18:54;-1.80;39.80
5276;DHT22;2661;50.786;12.728;2023-02-28T03:24:19;-1.50;28.40
5276;DHT22;2661;50.786;12.728;2023-02-28T03:26:50;-1.60;43.20
5276;DHT22;2661;50.786;12.728;2023-02-28T03:29:21;-1.60;38.30
5276;DHT22;2661;50.786;12.728;2023-02-28T03:31:58;-1.60;40.10
5276;DHT22;2661;50.786;12.728;2023-02-28T03:34:30;-1.60;32.40
5276;DHT22;2661;50.786;12.728;2023-02-28T03:36:59;-1.60;28.20
5276;DHT22;2661;50.786;12.728;2023-02-28T03:39:34;-1.50;53.60
5276;DHT22;2661;50.786;12.728;2023-02-28T03:42:05;-1.50;52.50
5276;DHT22;2661;50.786;12.728;2023-02-28T03:44:34;-1.60;79.70
5276;DHT22;2661;50.786;12.728;2023-02-28T03:47:46;-1.50;48.20
5276;DHT22;2661;50.786;12.728;2023-02-28T03:49:54;-1.50;61.50
5276;DHT22;2661;50.786;12.728;2023-02-28T03:52:25;-1.40;44.30
5276;DHT22;2661;50.786;12.728;2023-02-28T03:54:54;-1.30;49.60
5276;DHT22;2661;50.786;12.728;2023-02-28T03:59:53;-1.30;46.20
5276;DHT22;2661;50.786;12.728;2023-02-28T04:02:21;-1.20;59.10
5276;DHT22;2661;50.786;12.728;2023-02-28T04:04:48;-1.40;37.00
5276;DHT22;2661;50.786;12.728;2023-02-28T04:07:15;-1.30;51.00
5276;DHT22;2661;50.786;12.728;2023-02-28T04:09:41;-1.40;80.50
5276;DHT22;2661;50.786;12.728;2023-02-28T04:12:08;-1.40;53.20
5276;DHT22;2661;50.786;12.728;2023-02-28T04:14:35;-1.40;54.40
5276;DHT22;2661;50.786;12.728;2023-02-28T04:17:01;-1.40;51.80
5276;DHT22;2661;50.786;12.728;2023-02-28T04:19:28;-1.40;57.30
5276;DHT22;2661;50.786;12.728;2023-02-28T04:21:55;-1.40;57.90
5276;DHT22;2661;50.786;12.728;2023-02-28T04:24:23;-1.40;57.80
5276;DHT22;2661;50.786;12.728;2023-02-28T04:26:50;-1.40;61.20
5276;DHT22;2661;50.786;12.728;2023-02-28T04:29:18;-1.30;60.00
5276;DHT22;2661;50.786;12.728;2023-02-28T04:31:45;-1.40;51.60
5276;DHT22;2661;50.786;12.728;2023-02-28T04:34:12;-1.30;58.10
5276;DHT22;2661;50.786;12.728;2023-02-28T04:36:39;-1.40;59.90
5276;DHT22;2661;50.786;12.728;2023-02-28T04:39:06;-1.30;70.80
5276;DHT22;2661;50.786;12.728;2023-02-28T04:41:32;-1.30;64.90
5276;DHT22;2661;50.786;12.728;2023-02-28T04:43:59;-1.20;59.70
5276;DHT22;2661;50.786;12.728;2023-02-28T04:46:26;-1.10;65.10
5276;DHT22;2661;50.786;12.728;2023-02-28T04:48:53;-1.10;64.40
5276;DHT22;2661;50.786;12.728;2023-02-28T04:51:20;-1.20;58.30
5276;DHT22;2661;50.786;12.728;2023-02-28T04:53:47;-1.30;81.50
5276;DHT22;2661;50.786;12.728;2023-02-28T04:56:15;-1.40;54.00
5276;DHT22;2661;50.786;12.728;2023-02-28T04:58:42;-1.30;48.10
5276;DHT22;2661;50.786;12.728;2023-02-28T05:01:16;-1.20;54.30
5276;DHT22;2661;50.786;12.728;2023-02-28T05:03:43;-1.20;43.40
5276;DHT22;2661;50.786;12.728;2023-02-28T05:06:11;-1.30;47.50
5276;DHT22;2661;50.786;12.728;2023-02-28T05:08:37;-1.30;52.40
5276;DHT22;2661;50.786;12.728;2023-02-28T05:11:05;-1.20;53.60
5276;DHT22;2661;50.786;12.728;2023-02-28T05:13:32;-1.20;52.70
5276;DHT22;2661;50.786;12.728;2023-02-28T05:15:58;-1.20;56.40
5276;DHT22;2661;50.786;12.728;2023-02-28T05:18:25;-1.20;60.90
5276;DHT22;2661;50.786;12.728;2023-02-28T05:20:52;-1.20;63.30
5276;DHT22;2661;50.786;12.728;2023-02-28T05:23:19;-1.30;57.40
5276;DHT22;2661;50.786;12.728;2023-02-28T05:25:46;-1.20;54.90
5276;DHT22;2661;50.786;12.728;2023-02-28T05:28:13;-1.20;52.20
5276;DHT22;2661;50.786;12.728;2023-02-28T05:30:40;-1.30;49.20
5276;DHT22;2661;50.786;12.728;2023-02-28T05:33:09;-1.30;51.50
5276;DHT22;2661;50.786;12.728;2023-02-28T05:35:38;-1.30;53.90
5276;DHT22;2661;50.786;12.728;2023-02-28T05:38:04;-1.30;49.80
5276;DHT22;2661;50.786;12.728;2023-02-28T05:40:31;-1.30;37.80
5276;DHT22;2661;50.786;12.728;2023-02-28T05:42:58;-1.30;48.10
5276;DHT22;2661;50.786;12.728;2023-02-28T05:45:24;-1.30;42.10
5276;DHT22;2661;50.786;12.728;2023-02-28T05:47:54;-1.20;33.20
5276;DHT22;2661;50.786;12.728;2023-02-28T05:50:20;-1.30;35.20
5276;DHT22;2661;50.786;12.728;2023-02-28T05:52:50;-1.30;37.50
5276;DHT22;2661;50.786;12.728;2023-02-28T05:55:17;-1.30;33.20
5276;DHT22;2661;50.786;12.728;2023-02-28T05:57:44;-1.40;30.80
5276;DHT22;2661;50.786;12.728;2023-02-28T06:00:11;-1.50;35.20
5276;DHT22;2661;50.786;12.728;2023-02-28T06:02:38;-1.50;37.40
5276;DHT22;2661;50.786;12.728;2023-02-28T06:05:06;-1.50;44.40
5276;DHT22;2661;50.786;12.728;2023-02-28T06:07:34;-1.60;50.00
5276;DHT22;2661;50.786;12.728;2023-02-28T06:10:01;-1.60;45.50
5276;DHT22;2661;50.786;12.728;2023-02-28T06:12:27;-1.50;44.00
5276;DHT22;2661;50.786;12.728;2023-02-28T06:14:54;-1.40;43.70
5276;DHT22;2661;50.786;12.728;2023-02-28T06:17:20;-1.50;45.50
5276;DHT22;2661;50.786;12.728;2023-02-28T06:19:47;-1.70;43.80
5276;DHT22;2661;50.786;12.728;2023-02-28T06:22:14;-1.80;33.00
5276;DHT22;2661;50.786;12.728;2023-02-28T06:24:41;-1.80;45.40
5276;DHT22;2661;50.786;12.728;2023-02-28T06:27:07;-1.90;48.80
5276;DHT22;2661;50.786;12.728;2023-02-28T06:29:34;-1.80;43.70
5276;DHT22;2661;50.786;12.728;2023-02-28T06:32:01;-1.80;51.10
5276;DHT22;2661;50.786;12.728;2023-02-28T06:34:28;-1.80;45.20
5276;DHT22;2661;50.786;12.728;2023-02-28T06:36:54;-1.80;43.00
5276;DHT22;2661;50.786;12.728;2023-02-28T06:39:21;-1.80;34.80
5276;DHT22;2661;50.786;12.728;2023-02-28T06:41:48;-1.80;52.90
5276;DHT22;2661;50.786;12.728;2023-02-28T06:44:21;-1.70;32.30
5276;DHT22;2661;50.786;12.728;2023-02-28T06:46:48;-1.80;33.50
5276;DHT22;2661;50.786;12.728;2023-02-28T06:49:15;-1.70;33.60
5276;DHT22;2661;50.786;12.728;2023-02-28T06:51:42;-1.70;25.10
5276;DHT22;2661;50.786;12.728;2023-02-28T06:54:11;-1.60;28.70
5276;DHT22;2661;50.786;12.728;2023-02-28T06:56:38;-1.40;26.80
5276;DHT22;2661;50.786;12.728;2023-02-28T06:59:05;-1.40;27.90
5276;DHT22;2661;50.786;12.728;2023-02-28T07:01:32;-1.40;27.10
5276;DHT22;2661;50.786;12.728;2023-02-28T07:03:59;-1.50;25.90
5276;DHT22;2661;50.786;12.728;2023-02-28T07:06:26;-1.50;40.50
5276;DHT22;2661;50.786;12.728;2023-02-28T07:08:53;-1.50;17.60
5276;DHT22;2661;50.786;12.728;2023-02-28T07:11:20;-1.50;23.70
5276;DHT22;2661;50.786;12.728;2023-02-28T07:13:49;-1.50;31.60
5276;DHT22;2661;50.786;12.728;2023-02-28T07:16:17;-1.50;35.10
5276;DHT22;2661;50.786;12.728;2023-02-28T07:18:43;-1.40;30.60
5276;DHT22;2661;50.786;12.728;2023-02-28T07:21:10;-1.30;31.70
5276;DHT22;2661;50.786;12.728;2023-02-28T07:23:38;-1.30;42.80
5276;DHT22;2661;50.786;12.728;2023-02-28T07:26:05;-1.30;37.00
5276;DHT22;2661;50.786;12.728;2023-02-28T07:28:32;-1.30;27.70
5276;DHT22;2661;50.786;12.728;2023-02-28T07:31:03;-1.30;30.50
5276;DHT22;2661;50.786;12.728;2023-02-28T07:33:30;-1.20;33.60
5276;DHT22;2661;50.786;12.728;2023-02-28T07:36:00;-1.10;39.90
5276;DHT22;2661;50.786;12.728;2023-02-28T07:38:27;-1.10;54.70
5276;DHT22;2661;50.786;12.728;2023-02-28T07:40:54;-1.20;28.50
5276;DHT22;2661;50.786;12.728;2023-02-28T07:43:20;-1.00;25.80
5276;DHT22;2661;50.786;12.728;2023-02-28T07:45:47;-1.10;29.00
5276;DHT22;2661;50.786;12.728;2023-02-28T07:48:13;-1.10;30.30
5276;DHT22;2661;50.786;12.728;2023-02-28T07:50:40;-1.00;32.00
5276;DHT22;2661;50.786;12.728;2023-02-28T07:53:07;-0.90;34.80
5276;DHT22;2661;50.786;12.728;2023-02-28T07:55:33;-0.80;31.60
5276;DHT22;2661;50.786;12.728;2023-02-28T07:58:00;-0.80;35.20
5276;DHT22;2661;50.786;12.728;2023-02-28T08:00:26;-0.80;29.50
5276;DHT22;2661;50.786;12.728;2023-02-28T08:02:53;-0.80;30.00
5276;DHT22;2661;50.786;12.728;2023-02-28T08:05:20;-0.70;30.40
5276;DHT22;2661;50.786;12.728;2023-02-28T08:07:48;-0.70;37.70
5276;DHT22;2661;50.786;12.728;2023-02-28T08:10:15;-0.60;38.90
5276;DHT22;2661;50.786;12.728;2023-02-28T08:12:42;-0.50;40.90
5276;DHT22;2661;50.786;12.728;2023-02-28T08:15:08;-0.40;40.10
5276;DHT22;2661;50.786;12.728;2023-02-28T08:17:35;-0.40;37.40
5276;DHT22;2661;50.786;12.728;2023-02-28T08:20:02;-0.40;35.70
5276;DHT22;2661;50.786;12.728;2023-02-28T08:22:30;-0.30;34.80
5276;DHT22;2661;50.786;12.728;2023-02-28T08:24:56;-0.40;35.60
5276;DHT22;2661;50.786;12.728;2023-02-28T08:27:23;-0.30;33.80
5276;DHT22;2661;50.786;12.728;2023-02-28T08:29:50;-0.30;37.00
5276;DHT22;2661;50.786;12.728;2023-02-28T08:32:16;-0.30;35.60
5276;DHT22;2661;50.786;12.728;2023-02-28T08:34:55;-0.30;45.90
5276;DHT22;2661;50.786;12.728;2023-02-28T08:37:22;-0.30;29.60
5276;DHT22;2661;50.786;12.728;2023-02-28T08:39:48;-0.30;33.20
5276;DHT22;2661;50.786;12.728;2023-02-28T08:42:15;-0.20;37.80
5276;DHT22;2661;50.786;12.728;2023-02-28T08:44:41;-0.20;33.80
5276;DHT22;2661;50.786;12.728;2023-02-28T08:47:08;-0.10;38.10
5276;DHT22;2661;50.786;12.728;2023-02-28T08:49:34;-0.20;37.40
5276;DHT22;2661;50.786;12.728;2023-02-28T08:52:01;-0.10;29.90
5276;DHT22;2661;50.786;12.728;2023-02-28T08:54:28;0.00;30.00
5276;DHT22;2661;50.786;12.728;2023-02-28T08:56:57;-0.10;35.40
5276;DHT22;2661;50.786;12.728;2023-02-28T08:59:23;-0.10;31.90
5276;DHT22;2661;50.786;12.728;2023-02-28T09:01:50;0.00;50.10
5276;DHT22;2661;50.786;12.728;2023-02-28T09:04:16;0.10;47.00
5276;DHT22;2661;50.786;12.728;2023-02-28T09:06:46;0.10;43.20
5276;DHT22;2661;50.786;12.728;2023-02-28T09:09:12;0.10;33.60
5276;DHT22;2661;50.786;12.728;2023-02-28T09:11:39;0.10;38.60
5276;DHT22;2661;50.786;12.728;2023-02-28T09:14:05;0.10;45.10
5276;DHT22;2661;50.786;12.728;2023-02-28T09:16:32;0.00;45.60
5276;DHT22;2661;50.786;12.728;2023-02-28T09:18:59;0.00;40.10
5276;DHT22;2661;50.786;12.728;2023-02-28T09:21:26;0.00;45.80
5276;DHT22;2661;50.786;12.728;2023-02-28T09:23:53;-0.10;40.50
5276;DHT22;2661;50.786;12.728;2023-02-28T09:26:22;0.00;42.70
5276;DHT22;2661;50.786;12.728;2023-02-28T09:28:49;0.00;37.70
5276;DHT22;2661;50.786;12.728;2023-02-28T09:31:18;0.00;51.70
5276;DHT22;2661;50.786;12.728;2023-02-28T09:33:50;0.00;51.50
5276;DHT22;2661;50.786;12.728;2023-02-28T09:36:18;0.10;46.30
5276;DHT22;2661;50.786;12.728;2023-02-28T09:38:45;0.00;48.80
5276;DHT22;2661;50.786;12.728;2023-02-28T09:43:45;0.00;45.40
5276;DHT22;2661;50.786;12.728;2023-02-28T09:49:00;0.00;43.00
5276;DHT22;2661;50.786;12.728;2023-02-28T09:51:30;0.10;48.30
5276;DHT22;2661;50.786;12.728;2023-02-28T09:53:59;0.10;51.30
5276;DHT22;2661;50.786;12.728;2023-02-28T09:56:30;0.20;51.50
5276;DHT22;2661;50.786;12.728;2023-02-28T10:01:49;0.40;48.50
5276;DHT22;2661;50.786;12.728;2023-02-28T10:07:00;0.30;49.70
5276;DHT22;2661;50.786;12.728;2023-02-28T10:09:30;0.40;54.90
5276;DHT22;2661;50.786;12.728;2023-02-28T10:12:03;0.30;56.30
5276;DHT22;2661;50.786;12.728;2023-02-28T10:14:31;0.30;49.60
5276;DHT22;2661;50.786;12.728;2023-02-28T10:17:12;0.50;63.90
5276;DHT22;2661;50.786;12.728;2023-02-28T10:19:42;0.50;71.10
5276;DHT22;2661;50.786;12.728;2023-02-28T10:22:14;0.60;57.50
5276;DHT22;2661;50.786;12.728;2023-02-28T10:24:42;0.50;55.50
5276;DHT22;2661;50.786;12.728;2023-02-28T10:27:14;0.50;53.50
5276;DHT22;2661;50.786;12.728;2023-02-28T10:29:51;0.50;49.10
5276;DHT22;2661;50.786;12.728;2023-02-28T10:32:39;0.50;53.30
5276;DHT22;2661;50.786;12.728;2023-02-28T10:37:38;0.60;50.40
5276;DHT22;2661;50.786;12.728;2023-02-28T10:40:06;0.60;51.40
5276;DHT22;2661;50.786;12.728;2023-02-28T10:42:33;0.60;53.90
5276;DHT22;2661;50.786;12.728;2023-02-28T10:45:18;0.50;49.00
5276;DHT22;2661;50.786;12.728;2023-02-28T10:47:55;0.50;47.00
5276;DHT22;2661;50.786;12.728;2023-02-28T10:50:33;0.60;55.80
5276;DHT22;2661;50.786;12.728;2023-02-28T10:53:06;0.60;49.10
5276;DHT22;2661;50.786;12.728;2023-02-28T10:55:34;0.60;50.40
5276;DHT22;2661;50.786;12.728;2023-02-28T10:58:00;0.60;55.30
5276;DHT22;2661;50.786;12.728;2023-02-28T11:00:31;0.70;55.00
5276;DHT22;2661;50.786;12.728;2023-02-28T11:02:58;0.70;56.00
5276;DHT22;2661;50.786;12.728;2023-02-28T11:05:31;0.80;50.40
5276;DHT22;2661;50.786;12.728;2023-02-28T11:08:04;0.80;57.20
5276;DHT22;2661;50.786;12.728;2023-02-28T11:10:31;0.80;65.30
5276;DHT22;2661;50.786;12.728;2023-02-28T11:13:01;0.70;47.70
5276;DHT22;2661;50.786;12.728;2023-02-28T11:15:34;0.70;42.70
5276;DHT22;2661;50.786;12.728;2023-02-28T11:18:02;0.80;49.70
5276;DHT22;2661;50.786;12.728;2023-02-28T11:20:33;0.80;48.20
5276;DHT22;2661;50.786;12.728;2023-02-28T11:23:01;0.80;51.80
5276;DHT22;2661;50.786;12.728;2023-02-28T11:25:29;0.80;50.70
5276;DHT22;2661;50.786;12.728;2023-02-28T11:28:40;0.90;45.70
5276;DHT22;2661;50.786;12.728;2023-02-28T11:30:59;0.90;48.70
5276;DHT22;2661;50.786;12.728;2023-02-28T11:33:30;0.90;52.50
5276;DHT22;2661;50.786;12.728;2023-02-28T11:35:59;0.90;49.50
5276;DHT22;2661;50.786;12.728;2023-02-28T11:38:27;0.90;44.50
5276;DHT22;2661;50.786;12.728;2023-02-28T11:40:59;0.90;51.60
5276;DHT22;2661;50.786;12.728;2023-02-28T11:43:30;0.90;52.30
5276;DHT22;2661;50.786;12.728;2023-02-28T11:46:16;0.90;55.00
5276;DHT22;2661;50.786;12.728;2023-02-28T11:56:12;1.10;49.00
5276;DHT22;2661;50.786;12.728;2023-02-28T11:58:54;1.10;56.40
5276;DHT22;2661;50.786;12.728;2023-02-28T12:01:30;1.10;42.30
5276;DHT22;2661;50.786;12.728;2023-02-28T12:04:15;1.20;39.60
5276;DHT22;2661;50.786;12.728;2023-02-28T12:09:18;1.20;47.70
5276;DHT22;2661;50.786;12.728;2023-02-28T12:12:51;1.20;48.60
5276;DHT22;2661;50.786;12.728;2023-02-28T12:14:47;1.30;54.20
5276;DHT22;2661;50.786;12.728;2023-02-28T12:17:26;1.30;65.00
5276;DHT22;2661;50.786;12.728;2023-02-28T12:20:05;1.30;54.60
5276;DHT22;2661;50.786;12.728;2023-02-28T12:27:50;1.30;50.00
5276;DHT22;2661;50.786;12.728;2023-02-28T12:30:21;1.30;50.40
5276;DHT22;2661;50.786;12.728;2023-02-28T12:32:49;1.30;53.80
5276;DHT22;2661;50.786;12.728;2023-02-28T12:35:21;1.40;56.00
5276;DHT22;2661;50.786;12.728;2023-02-28T12:37:50;1.40;51.70
5276;DHT22;2661;50.786;12.728;2023-02-28T12:40:22;1.40;47.30
5276;DHT22;2661;50.786;12.728;2023-02-28T12:42:50;1.40;42.40
5276;DHT22;2661;50.786;12.728;2023-02-28T12:45:22;1.40;20.90
5276;DHT22;2661;50.786;12.728;2023-02-28T12:47:50;1.50;18.70
5276;DHT22;2661;50.786;12.728;2023-02-28T12:50:18;1.50;41.10
5276;DHT22;2661;50.786;12.728;2023-02-28T12:58:00;1.30;45.10
5276;DHT22;2661;50.786;12.728;2023-02-28T13:00:35;1.30;39.50
5276;DHT22;2661;50.786;12.728;2023-02-28T13:05:55;1.50;48.10
5276;DHT22;2661;50.786;12.728;2023-02-28T13:08:29;1.50;46.00
5276;DHT22;2661;50.786;12.728;2023-02-28T13:11:04;1.50;37.40
5276;DHT22;2661;50.786;12.728;2023-02-28T13:13:45;1.50;47.60
5276;DHT22;2661;50.786;12.728;2023-02-28T13:16:11;1.60;45.60
5276;DHT22;2661;50.786;12.728;2023-02-28T13:21:21;1.60;51.30
5276;DHT22;2661;50.786;12.728;2023-02-28T13:26:22;1.60;57.20
5276;DHT22;2661;50.786;12.728;2023-02-28T13:31:21;1.60;73.10
5276;DHT22;2661;50.786;12.728;2023-02-28T13:38:49;1.60;91.30
5276;DHT22;2661;50.786;12.728;2023-02-28T13:46:27;1.60;85.50
5276;DHT22;2661;50.786;12.728;2023-02-28T13:48:54;1.60;67.80
5276;DHT22;2661;50.786;12.728;2023-02-28T13:51:28;1.60;66.50
5276;DHT22;2661;50.786;12.728;2023-02-28T13:54:07;1.70;64.50
5276;DHT22;2661;50.786;12.728;2023-02-28T13:56:44;1.70;76.40
5276;DHT22;2661;50.786;12.728;2023-02-28T13:59:16;1.70;68.40
5276;DHT22;2661;50.786;12.728;2023-02-28T14:01:57;1.60;70.40
5276;DHT22;2661;50.786;12.728;2023-02-28T14:07:19;1.50;77.80
5276;DHT22;2661;50.786;12.728;2023-02-28T14:09:50;1.60;56.20
5276;DHT22;2661;50.786;12.728;2023-02-28T14:15:24;1.50;68.20
5276;DHT22;2661;50.786;12.728;2023-02-28T14:17:52;1.50;65.50
5276;DHT22;2661;50.786;12.728;2023-02-28T14:20:20;1.50;62.10
5276;DHT22;2661;50.786;12.728;2023-02-28T14:23:01;1.60;49.90
5276;DHT22;2661;50.786;12.728;2023-02-28T14:25:37;1.70;48.40
5276;DHT22;2661;50.786;12.728;2023-02-28T14:28:14;1.70;45.30
5276;DHT22;2661;50.786;12.728;2023-02-28T14:30:49;1.80;52.90
5276;DHT22;2661;50.786;12.728;2023-02-28T14:38:32;1.80;47.90
5276;DHT22;2661;50.786;12.728;2023-02-28T14:41:00;1.80;94.40
5276;DHT22;2661;50.786;12.728;2023-02-28T14:43:29;1.80;93.60
5276;DHT22;2661;50.786;12.728;2023-02-28T14:45:57;1.80;99.90
5276;DHT22;2661;50.786;12.728;2023-02-28T14:48:24;1.80;99.70
5276;DHT22;2661;50.786;12.728;2023-02-28T14:50:57;1.70;99.90
5276;DHT22;2661;50.786;12.728;2023-02-28T14:53:25;1.70;97.00
5276;DHT22;2661;50.786;12.728;2023-02-28T14:55:52;1.70;95.60
5276;DHT22;2661;50.786;12.728;2023-02-28T14:58:29;1.70;99.90
5276;DHT22;2661;50.786;12.728;2023-02-28T15:00:58;1.70;98.40
5276;DHT22;2661;50.786;12.728;2023-02-28T15:03:32;1.70;90.10
5276;DHT22;2661;50.786;12.728;2023-02-28T15:06:01;1.60;93.60
5276;DHT22;2661;50.786;12.728;2023-02-28T15:08:29;1.60;98.10
5276;DHT22;2661;50.786;12.728;2023-02-28T15:13:22;1.60;89.80
5276;DHT22;2661;50.786;12.728;2023-02-28T15:15:51;1.60;89.80
5276;DHT22;2661;50.786;12.728;2023-02-28T15:20:57;1.60;99.90
5276;DHT22;2661;50.786;12.728;2023-02-28T15:23:24;1.60;98.00
5276;DHT22;2661;50.786;12.728;2023-02-28T15:25:51;1.60;99.90
5276;DHT22;2661;50.786;12.728;2023-02-28T15:28:19;1.50;94.20
5276;DHT22;2661;50.786;12.728;2023-02-28T15:30:56;1.60;96.70
5276;DHT22;2661;50.786;12.728;2023-02-28T15:33:25;1.60;99.90
5276;DHT22;2661;50.786;12.728;2023-02-28T15:36:03;1.60;92.60
5276;DHT22;2661;50.786;12.728;2023-02-28T15:38:32;1.60;99.90
5276;DHT22;2661;50.786;12.728;2023-02-28T15:40:59;1.60;96.40
5276;DHT22;2661;50.786;12.728;2023-02-28T15:43:33;1.50;99.90
5276;DHT22;2661;50.786;12.728;2023-02-28T15:48:31;1.50;92.30
5276;DHT22;2661;50.786;12.728;2023-02-28T15:51:08;1.40;91.40
5276;DHT22;2661;50.786;12.728;2023-02-28T15:53:40;1.40;92.70
5276;DHT22;2661;50.786;12.728;2023-02-28T15:56:20;1.50;98.70
5276;DHT22;2661;50.786;12.728;2023-02-28T15:58:48;1.40;94.20
5276;DHT22;2661;50.786;12.728;2023-02-28T16:01:24;1.40;92.50
5276;DHT22;2661;50.786;12.728;2023-02-28T16:03:54;1.40;93.70
5276;DHT22;2661;50.786;12.728;2023-02-28T16:09:04;1.30;78.10
5276;DHT22;2661;50.786;12.728;2023-02-28T16:11:32;1.20;79.30
5276;DHT22;2661;50.786;12.728;2023-02-28T16:13:58;1.20;80.80
5276;DHT22;2661;50.786;12.728;2023-02-28T16:16:25;1.10;81.60
5276;DHT22;2661;50.786;12.728;2023-02-28T16:18:52;1.10;79.60
5276;DHT22;2661;50.786;12.728;2023-02-28T16:21:19;1.00;73.30
5276;DHT22;2661;50.786;12.728;2023-02-28T16:23:45;1.00;82.10
5276;DHT22;2661;50.786;12.728;2023-02-28T16:26:16;0.90;93.30
5276;DHT22;2661;50.786;12.728;2023-02-28T16:28:44;0.90;93.70
5276;DHT22;2661;50.786;12.728;2023-02-28T16:31:11;0.90;77.30
5276;DHT22;2661;50.786;12.728;2023-02-28T16:33:43;0.80;70.90
5276;DHT22;2661;50.786;12.728;2023-02-28T16:36:14;0.80;92.50
5276;DHT22;2661;50.786;12.728;2023-02-28T16:38:42;0.80;90.70
5276;DHT22;2661;50.786;12.728;2023-02-28T16:41:11;0.80;82.90
5276;DHT22;2661;50.786;12.728;2023-02-28T16:43:43;0.80;82.60
5276;DHT22;2661;50.786;12.728;2023-02-28T16:46:10;0.70;65.70
5276;DHT22;2661;50.786;12.728;2023-02-28T16:48:38;0.70;68.50
5276;DHT22;2661;50.786;12.728;2023-02-28T16:51:07;0.60;81.40
5276;DHT22;2661;50.786;12.728;2023-02-28T16:53:34;0.60;92.90
5276;DHT22;2661;50.786;12.728;2023-02-28T16:56:01;0.50;91.30
5276;DHT22;2661;50.786;12.728;2023-02-28T16:58:28;0.50;90.80
5276;DHT22;2661;50.786;12.728;2023-02-28T17:00:55;0.50;65.10
5276;DHT22;2661;50.786;12.728;2023-02-28T17:03:26;0.40;66.00
5276;DHT22;2661;50.786;12.728;2023-02-28T17:05:59;0.40;62.80
5276;DHT22;2661;50.786;12.728;2023-02-28T17:08:25;0.30;64.40
5276;DHT22;2661;50.786;12.728;2023-02-28T17:10:55;0.30;60.80
5276;DHT22;2661;50.786;12.728;2023-02-28T17:13:21;0.20;72.00
5276;DHT22;2661;50.786;12.728;2023-02-28T17:15:48;0.20;53.20
5276;DHT22;2661;50.786;12.728;2023-02-28T17:18:16;0.20;50.10
5276;DHT22;2661;50.786;12.728;2023-02-28T17:20:45;0.10;52.50
5276;DHT22;2661;50.786;12.728;2023-02-28T17:23:12;0.00;52.00
5276;DHT22;2661;50.786;12.728;2023-02-28T17:25:38;0.10;89.70
5276;DHT22;2661;50.786;12.728;2023-02-28T17:28:05;0.00;59.90
5276;DHT22;2661;50.786;12.728;2023-02-28T17:30:33;0.00;47.40
5276;DHT22;2661;50.786;12.728;2023-02-28T17:33:00;0.00;63.90
5276;DHT22;2661;50.786;12.728;2023-02-28T17:35:27;-0.10;65.20
5276;DHT22;2661;50.786;12.728;2023-02-28T17:37:54;-0.20;83.70
5276;DHT22;2661;50.786;12.728;2023-02-28T17:40:22;-0.20;88.70
5276;DHT22;2661;50.786;12.728;2023-02-28T17:42:50;-0.20;99.90
5276;DHT22;2661;50.786;12.728;2023-02-28T17:45:18;-0.20;97.40
5276;DHT22;2661;50.786;12.728;2023-02-28T17:47:47;-0.20;98.90